WELCOME TO Fly Ecuador Virtual

Fly Ecuador Virtual es una organización creada con el fin de brindar una plataforma que permita a los pilotos virtuales, principalmente ecuatorianos, tener un lugar donde registrar sus horas de vuelo, sus certificados de conocimiento adquiridos, las rutas que han volado y los destinos que han visitado. Así mismo, se busca ayudar a todos los pilotos a expandir su conocimiento sobre el mundo de la aviación real y virtual por medio de publicaciones, foros y cursos en línea.

A diferencia de las aerolíneas virtuales tradicionales, Fly Ecuador Virtual no simula las operaciones de una aerolínea del mundo real en específico. Un miembro de Fly Ecuador Virtual tiene toda la libertad de volar cualquier aeronave que opere en el espacio aéreo ecuatoriano real, en cualquier ruta, sea esta nacional o internacional, IFR o VFR, aeronaves monomotor, multimotor o helicópteros. Todo esto con el objetivo de expandir las operaciones virtuales dentro del espacio aéreo ecuatoriano, creando una comunidad en la que se compartan conocimientos y experiencias que beneficien a todos sus integrantes.

El crecimiento de Fly Ecuador Virtual depende de la participación conjunta de todos sus miembros, por este motivo se incentiva la participación en línea a través de los diferentes medios descritos más adelante en este sitio web.

 STATISTICS

Pilots 77
Aircraft in fleet 0
Routes 0
Total hours: 10511.12
Flights total 1674
Flights Regular 0
Flights Charter 1721
% Flights Regular 0.00 %

 LATEST FLIGHTS

CallsignPilotDepartureArrivalDateFlight Time
ECU070Luis Jaramillo  SKCL  SEGU 2018-09-16 1.24
ECU024Arturo Carvajal  SEGU  SEQM 2018-09-16 0.54
ECU024Arturo Carvajal  SEMC  SEQM 2018-09-09 0.47
ECU070Luis Jaramillo  SEQM  SKCL 2018-09-06 0.85
ECU024Arturo Carvajal  SEMC  SEQM 2018-09-03 0.48

 NEWEST PILOTS

 Consultar METAR

METAR
SEGU - José Joaquín de Olmedo International Airport, Guayaquil, ECU
Distance from station: N 0mi, 0km
Updated: Sun, 23-Sep-2018 7:00am PDT
Overcast
Overcast
 Wind from SW
Wind: SW 6 mph , 9 km/h
Temperature: 75°F , 24°C
Dew Point: 66°F , 19°C
Humidity: 74%
Barometer: 29.85 inHg , 1011 hPa
Clouds: Overcast
Visibility: 6 miles , 10 km
Cloud details: Mostly Cloudy 2600 ft
Overcast 9000 ft
2018/09/23 14:00 SEGU 231400Z 22005KT 170V260 9999 BKN026 OVC090 24/19 Q1011 NOS IG RMK A2986
 
SEQM - Aeropuerto Internacional Mariscal Sucre, ECU
Distance from station: NE 120mi, 200km
Updated: Sun, 23-Sep-2018 7:00am PDT
Partly Cloudy
Partly Cloudy
 Wind from NW
Wind: NW 5 mph , 7 km/h
Temperature: 64°F , 18°C
Dew Point: 45°F , 7°C
Humidity: 49%
Barometer: 30.24 inHg , 1024 hPa
Clouds: Partly Cloudy
Visibility: 6 miles , 10 km
Cloud details: Few Clouds 3300 ft
Partly Cloudy 30000 ft
2018/09/23 14:00 SEQM 231400Z 31004KT 270V330 9999 FEW033 SCT300 18/07 Q1024 NOSIG RMK A3026
 
SECU - Mariscal Lamar Airpor, ECU
Distance from station: ENE 80mi, 120km
Updated: Sun, 23-Sep-2018 7:00am PDT
Mostly Cloudy
Mostly Cloudy
 Wind from SE
Wind: SE 2 mph , 4 km/h
Temperature: 55°F , 13°C
Dew Point: 50°F , 10°C
Humidity: 82%
Barometer: 30.33 inHg , 1027 hPa
Clouds: Mostly Cloudy
Visibility: 6 miles , 10 km
Cloud details: Mostly Cloudy 4000 ft
2018/09/23 14:00 SECU 231400Z 14002KT 9999 BKN040 13/10 Q1027
 
SELT - Cotopaxi International Airport, ECU
Distance from station: NW 21mi, 34km
Updated: Sun, 23-Sep-2018 7:00am PDT
Mostly Cloudy
Mostly Cloudy
 Wind from S
Wind: S 17 mph , 28 km/h
Temperature: 55°F , 13°C
Dew Point: 46°F , 8°C
Humidity: 72%
Barometer: 30.45 inHg , 1031 hPa
Clouds: Mostly Cloudy
Visibility: 6 miles , 10 km
Cloud details: Mostly Cloudy 3000 ft
2018/09/23 14:00 SELT 231400Z 17015KT 9999 BKN030 13/08 Q1031
 
SEMT - Eloy Alfaro International Airport, ECU
Distance from station: SSE 70mi, 100km
Updated: Sun, 23-Sep-2018 7:00am PDT
Mostly Cloudy
Mostly Cloudy
 Wind from SSW
Wind: SSW 9 mph , 15 km/h
Temperature: 75°F , 24°C
Dew Point: 70°F , 21°C
Humidity: 83%
Barometer: 29.85 inHg , 1011 hPa
Clouds: Mostly Cloudy
Visibility: 6 miles , 10 km
Cloud details: Mostly Cloudy 1600 ft
2018/09/23 14:00 SEMT 231400Z 20008KT 9999 BKN016 24/21 Q1011 RMK A2987

Metar display script from Saratoga-Weather.org

 NOTAMS

NOTAMDate



Fly Ecuador Virtual 2018 | System by VAM